createdAt,value
2022-10-23T00:02:22.429Z,14.30
2022-10-23T00:04:54.861Z,14.33
2022-10-23T00:07:26.490Z,14.35
2022-10-23T00:09:58.505Z,14.33
2022-10-23T00:12:30.333Z,14.34
2022-10-23T00:15:01.931Z,14.39
2022-10-23T00:17:35.093Z,14.33
2022-10-23T00:20:08.808Z,14.36
2022-10-23T00:22:41.048Z,14.28
2022-10-23T00:25:13.611Z,14.35
2022-10-23T00:27:45.333Z,14.39
2022-10-23T00:30:17.047Z,14.38
2022-10-23T00:32:48.619Z,14.41
2022-10-23T00:35:20.549Z,14.45
2022-10-23T00:37:52.469Z,14.47
2022-10-23T00:40:24.203Z,14.48
2022-10-23T00:42:55.888Z,14.48
2022-10-23T00:45:31.655Z,14.50
2022-10-23T00:48:04.587Z,14.53
2022-10-23T00:50:36.974Z,14.53
2022-10-23T00:53:10.675Z,14.53
2022-10-23T00:55:46.750Z,14.53
2022-10-23T00:58:21.248Z,14.53
2022-10-23T01:00:55.190Z,14.49
2022-10-23T01:03:29.665Z,14.47
2022-10-23T01:06:09.492Z,14.46
2022-10-23T01:08:48.742Z,14.41
2022-10-23T01:11:27.410Z,14.42
2022-10-23T01:14:07.561Z,14.43
2022-10-23T01:16:48.225Z,14.40
2022-10-23T01:19:36.355Z,14.37
2022-10-23T01:25:06.714Z,14.29
2022-10-23T01:27:41.848Z,14.21
2022-10-23T01:30:17.099Z,14.23
2022-10-23T01:32:53.647Z,14.29
2022-10-23T01:35:30.159Z,14.28
2022-10-23T01:38:10.901Z,14.30
2022-10-23T01:40:49.626Z,14.30
2022-10-23T01:43:26.042Z,14.25
2022-10-23T01:46:02.346Z,14.25
2022-10-23T01:48:37.610Z,14.25
2022-10-23T01:51:14.301Z,14.24
2022-10-23T01:53:48.676Z,14.23
2022-10-23T01:56:27.921Z,14.21
2022-10-23T01:59:02.816Z,14.19
2022-10-23T02:01:40.838Z,14.19
2022-10-23T02:04:18.572Z,14.19
2022-10-23T02:06:50.501Z,14.07
2022-10-23T02:09:22.277Z,14.08
2022-10-23T02:11:59.893Z,14.00
2022-10-23T02:14:40.862Z,13.99
2022-10-23T02:17:22.560Z,14.04
2022-10-23T02:20:01.439Z,14.01
2022-10-23T02:22:39.539Z,13.88
2022-10-23T02:25:17.830Z,13.85
2022-10-23T02:27:54.689Z,13.84
2022-10-23T02:30:29.736Z,13.84
2022-10-23T02:33:13.402Z,13.90
2022-10-23T02:35:46.491Z,13.89
2022-10-23T02:38:37.368Z,13.73
2022-10-23T02:41:18.252Z,13.61
2022-10-23T02:43:59.095Z,13.58
2022-10-23T02:46:46.414Z,13.60
2022-10-23T02:49:22.677Z,13.68
2022-10-23T02:52:05.130Z,13.72
2022-10-23T02:55:03.250Z,13.70
2022-10-23T02:57:39.507Z,13.68
2022-10-23T03:00:19.540Z,13.67
2022-10-23T03:02:56.589Z,13.69
2022-10-23T03:05:31.411Z,13.68
2022-10-23T03:08:06.214Z,13.63
2022-10-23T03:10:38.066Z,13.61
2022-10-23T03:13:12.225Z,13.66
2022-10-23T03:15:47.642Z,13.59
2022-10-23T03:18:19.817Z,13.53
2022-10-23T03:20:55.683Z,13.56
2022-10-23T03:23:27.237Z,13.64
2022-10-23T03:25:59.094Z,13.66
2022-10-23T03:28:38.357Z,13.66
2022-10-23T03:31:10.013Z,13.70
2022-10-23T03:33:44.471Z,13.69
2022-10-23T03:36:16.702Z,13.68
2022-10-23T03:38:48.791Z,13.69
2022-10-23T03:41:20.578Z,13.70
2022-10-23T03:43:52.181Z,13.68
2022-10-23T03:46:24.343Z,13.62
2022-10-23T03:48:59.564Z,13.54
2022-10-23T03:51:31.207Z,13.47
2022-10-23T03:54:02.860Z,13.42
2022-10-23T03:56:34.967Z,13.34
2022-10-23T03:59:07.961Z,13.43
2022-10-23T04:01:40.521Z,13.42
2022-10-23T04:04:16.796Z,13.40
2022-10-23T04:06:49.562Z,13.45
2022-10-23T04:09:21.667Z,13.48
2022-10-23T04:11:53.215Z,13.44
2022-10-23T04:14:24.724Z,13.44
2022-10-23T04:16:56.326Z,13.44
2022-10-23T04:19:28.335Z,13.48
2022-10-23T04:22:01.085Z,13.52
2022-10-23T04:24:33.070Z,13.49
2022-10-23T04:27:04.694Z,13.51
2022-10-23T04:29:36.310Z,13.48
2022-10-23T04:32:09.070Z,13.47
2022-10-23T04:34:41.493Z,13.36
2022-10-23T04:37:13.267Z,13.33
2022-10-23T04:39:44.823Z,13.39
2022-10-23T04:42:18.778Z,13.33
2022-10-23T04:44:52.261Z,13.36
2022-10-23T04:47:25.082Z,13.44
2022-10-23T04:50:04.924Z,13.44
2022-10-23T04:52:58.843Z,13.48
2022-10-23T04:55:53.639Z,13.34
2022-10-23T04:58:34.131Z,13.40
2022-10-23T05:01:07.315Z,13.44
2022-10-23T05:03:40.467Z,13.44
2022-10-23T05:06:13.028Z,13.48
2022-10-23T05:09:14.254Z,13.48
2022-10-23T05:12:11.403Z,13.47
2022-10-23T05:14:42.994Z,13.43
2022-10-23T05:17:20.778Z,13.42
2022-10-23T05:19:54.909Z,13.44
2022-10-23T05:22:31.470Z,13.45
2022-10-23T05:25:03.456Z,13.44
2022-10-23T05:27:36.735Z,13.50
2022-10-23T05:30:14.831Z,13.47
2022-10-23T05:32:47.028Z,13.46
2022-10-23T05:35:22.997Z,13.49
2022-10-23T05:37:57.362Z,13.47
2022-10-23T05:40:30.705Z,13.50
2022-10-23T05:43:12.619Z,13.49
2022-10-23T05:45:52.976Z,13.44
2022-10-23T05:48:36.962Z,13.41
2022-10-23T05:51:27.557Z,13.42
2022-10-23T05:54:07.857Z,13.28
2022-10-23T05:56:51.824Z,13.31
2022-10-23T05:59:26.113Z,13.40
2022-10-23T06:02:23.997Z,13.38
2022-10-23T06:05:02.375Z,13.41
2022-10-23T06:08:06.804Z,13.37
2022-10-23T06:10:38.533Z,13.42
2022-10-23T06:13:11.655Z,13.43
2022-10-23T06:15:43.290Z,13.40
2022-10-23T06:18:20.714Z,13.44
2022-10-23T06:21:04.388Z,13.49
2022-10-23T06:23:38.033Z,13.50
2022-10-23T06:26:29.586Z,13.32
2022-10-23T06:29:10.465Z,13.38
2022-10-23T06:31:42.628Z,13.47
2022-10-23T06:34:14.774Z,13.46
2022-10-23T06:36:46.474Z,13.43
2022-10-23T06:39:32.698Z,13.42
2022-10-23T06:42:16.171Z,13.49
2022-10-23T06:45:04.697Z,13.50
2022-10-23T06:47:42.091Z,13.56
2022-10-23T06:50:17.021Z,13.66
2022-10-23T06:52:48.110Z,13.77
2022-10-23T06:55:23.567Z,13.76
2022-10-23T06:57:56.546Z,13.79
2022-10-23T07:00:28.357Z,13.79
2022-10-23T07:03:00.701Z,13.76
2022-10-23T07:05:33.377Z,13.73
2022-10-23T07:08:05.138Z,13.71
2022-10-23T07:10:42.774Z,13.60
2022-10-23T07:13:15.210Z,13.50
2022-10-23T07:16:12.113Z,13.66
2022-10-23T07:18:44.787Z,13.70
2022-10-23T07:21:34.764Z,13.72
2022-10-23T07:24:25.782Z,13.61
2022-10-23T07:26:59.655Z,13.50
2022-10-23T07:29:32.361Z,13.67
2022-10-23T07:32:05.732Z,13.66
2022-10-23T07:34:41.075Z,13.54
2022-10-23T07:37:25.447Z,13.54
2022-10-23T07:39:57.678Z,13.55
2022-10-23T07:42:29.829Z,13.61
2022-10-23T07:45:04.508Z,13.60
2022-10-23T07:47:36.560Z,13.61
2022-10-23T07:50:10.711Z,13.55
2022-10-23T07:52:43.529Z,13.51
2022-10-23T07:55:21.993Z,13.50
2022-10-23T07:57:58.671Z,13.55
2022-10-23T08:00:42.599Z,13.58
2022-10-23T08:03:20.609Z,13.73
2022-10-23T08:05:53.087Z,13.79
2022-10-23T08:08:26.315Z,13.74
2022-10-23T08:11:00.380Z,13.61
2022-10-23T08:13:35.266Z,13.61
2022-10-23T08:16:10.806Z,13.70
2022-10-23T08:19:17.651Z,13.75
2022-10-23T08:21:54.753Z,13.81
2022-10-23T08:24:26.905Z,13.86
2022-10-23T08:26:59.994Z,13.98
2022-10-23T08:29:33.926Z,14.01
2022-10-23T08:32:06.587Z,13.85
2022-10-23T08:34:51.217Z,13.77
2022-10-23T08:37:29.591Z,13.67
2022-10-23T08:40:02.056Z,13.59
2022-10-23T08:43:07.402Z,13.55
2022-10-23T08:45:47.136Z,13.47
2022-10-23T08:48:40.595Z,13.56
2022-10-23T08:51:41.742Z,13.50
2022-10-23T08:54:20.479Z,13.55
2022-10-23T08:56:58.690Z,13.58
2022-10-23T08:59:39.604Z,13.68
2022-10-23T09:02:18.334Z,13.83
2022-10-23T09:04:53.641Z,13.88
2022-10-23T09:07:34.891Z,13.86
2022-10-23T09:10:30.851Z,13.91
2022-10-23T09:13:19.575Z,13.99
2022-10-23T09:16:01.627Z,14.04
2022-10-23T09:18:35.072Z,13.96
2022-10-23T09:21:12.242Z,13.91
2022-10-23T09:23:44.433Z,14.00
2022-10-23T09:26:18.915Z,13.96
2022-10-23T09:28:52.886Z,13.93
2022-10-23T09:31:25.219Z,14.01
2022-10-23T09:33:59.821Z,13.88
2022-10-23T09:36:32.450Z,13.81
2022-10-23T09:39:04.463Z,13.86
2022-10-23T09:41:39.065Z,13.91
2022-10-23T09:44:22.044Z,14.11
2022-10-23T09:46:56.124Z,14.24
2022-10-23T09:49:29.784Z,14.30
2022-10-23T09:52:06.709Z,14.36
2022-10-23T09:54:45.925Z,14.31
2022-10-23T09:57:30.743Z,14.22
2022-10-23T10:00:06.598Z,14.26
2022-10-23T10:02:55.469Z,14.33
2022-10-23T10:05:42.611Z,14.31
2022-10-23T10:08:31.443Z,14.39
2022-10-23T10:11:12.163Z,14.34
2022-10-23T10:14:05.364Z,14.38
2022-10-23T10:16:43.129Z,14.33
2022-10-23T10:19:25.849Z,14.43
2022-10-23T10:22:11.545Z,14.48
2022-10-23T10:24:52.718Z,14.32
2022-10-23T10:27:40.126Z,14.51
2022-10-23T10:30:17.568Z,14.62
2022-10-23T10:32:56.414Z,14.68
2022-10-23T10:35:42.478Z,14.58
2022-10-23T10:38:44.366Z,14.64
2022-10-23T10:41:38.092Z,14.62
2022-10-23T10:44:25.463Z,14.62
2022-10-23T10:47:00.861Z,14.46
2022-10-23T10:49:44.372Z,14.66
2022-10-23T10:52:57.215Z,14.63
2022-10-23T10:55:33.822Z,14.68
2022-10-23T10:58:13.225Z,14.79
2022-10-23T11:00:50.833Z,14.80
2022-10-23T11:03:39.222Z,14.60
2022-10-23T11:06:18.205Z,14.72
2022-10-23T11:08:57.188Z,14.80
2022-10-23T11:11:36.119Z,14.72
2022-10-23T11:14:08.806Z,14.59
2022-10-23T11:16:46.878Z,14.69
2022-10-23T11:19:26.198Z,14.90
2022-10-23T11:22:04.430Z,15.07
2022-10-23T11:25:11.675Z,15.19
2022-10-23T11:28:15.091Z,15.18
2022-10-23T11:31:02.924Z,15.10
2022-10-23T11:34:08.590Z,15.40
2022-10-23T11:36:48.078Z,15.62
2022-10-23T11:39:25.202Z,15.82
2022-10-23T11:42:01.283Z,16.11
2022-10-23T11:44:45.184Z,16.27
2022-10-23T11:47:44.438Z,16.40
2022-10-23T11:50:28.685Z,16.42
2022-10-23T11:53:14.837Z,16.19
2022-10-23T11:56:04.431Z,16.04
2022-10-23T11:58:48.405Z,16.10
2022-10-23T12:01:30.321Z,16.00
2022-10-23T12:04:07.939Z,16.06
2022-10-23T12:06:46.027Z,15.93
2022-10-23T12:09:31.726Z,15.99
2022-10-23T12:12:19.350Z,16.03
2022-10-23T12:14:53.030Z,16.20
2022-10-23T12:17:38.135Z,16.52
2022-10-23T12:20:24.915Z,16.79
2022-10-23T12:23:13.503Z,16.69
2022-10-23T12:26:03.891Z,16.73
2022-10-23T12:28:41.172Z,17.03
2022-10-23T12:31:26.961Z,17.17
2022-10-23T12:34:10.938Z,17.28
2022-10-23T12:37:12.526Z,17.19
2022-10-23T12:39:45.286Z,16.97
2022-10-23T12:42:23.076Z,17.03
2022-10-23T12:45:04.059Z,17.06
2022-10-23T12:50:23.851Z,17.47
2022-10-23T12:52:58.182Z,17.61
2022-10-23T12:55:35.818Z,17.65
2022-10-23T12:58:20.105Z,17.71
2022-10-23T13:00:58.717Z,17.86
2022-10-23T13:03:34.727Z,17.85
2022-10-23T13:06:12.185Z,17.95
2022-10-23T13:08:48.015Z,18.10
2022-10-23T13:11:32.377Z,18.20
2022-10-23T13:14:15.067Z,18.34
2022-10-23T13:16:47.494Z,18.38
2022-10-23T13:19:27.722Z,18.43
2022-10-23T13:22:01.143Z,18.42
2022-10-23T13:24:33.901Z,18.38
2022-10-23T13:27:25.673Z,18.42
2022-10-23T13:29:58.210Z,18.40
2022-10-23T13:32:32.304Z,18.42
2022-10-23T13:35:20.803Z,18.38
2022-10-23T13:37:53.943Z,18.31
2022-10-23T13:40:28.380Z,18.25
2022-10-23T13:43:00.763Z,18.19
2022-10-23T13:45:36.724Z,18.09
2022-10-23T13:48:15.275Z,18.06
2022-10-23T13:50:47.279Z,17.93
2022-10-23T13:53:19.477Z,17.99
2022-10-23T13:55:56.372Z,17.93
2022-10-23T13:58:30.925Z,17.95
2022-10-23T14:01:04.784Z,17.88
2022-10-23T14:03:36.906Z,17.88
2022-10-23T14:06:09.979Z,17.86
2022-10-23T14:08:41.918Z,17.81
2022-10-23T14:11:15.886Z,17.76
2022-10-23T14:13:48.686Z,17.77
2022-10-23T14:16:22.246Z,17.77
2022-10-23T14:18:54.456Z,17.86
2022-10-23T14:21:27.224Z,17.82
2022-10-23T14:23:57.624Z,17.77
2022-10-23T14:26:31.871Z,17.80
2022-10-23T14:29:08.313Z,17.78
2022-10-23T14:31:43.672Z,17.74
2022-10-23T14:34:15.767Z,17.70
2022-10-23T14:37:03.474Z,17.66
2022-10-23T14:39:39.907Z,17.63
2022-10-23T14:42:12.102Z,17.62
2022-10-23T14:44:45.015Z,17.53
2022-10-23T14:47:19.016Z,17.52
2022-10-23T14:49:54.406Z,17.49
2022-10-23T14:52:26.872Z,17.43
2022-10-23T14:54:58.813Z,17.35
2022-10-23T14:57:31.427Z,17.22
2022-10-23T15:00:04.653Z,16.98
2022-10-23T15:02:38.653Z,16.86
2022-10-23T15:05:11.303Z,16.88
2022-10-23T15:07:43.911Z,16.91
2022-10-23T15:12:53.121Z,16.83
2022-10-23T15:15:25.200Z,16.81
2022-10-23T15:17:57.250Z,16.62
2022-10-23T15:20:29.324Z,16.64
2022-10-23T15:23:01.560Z,16.55
2022-10-23T15:25:35.783Z,16.57
2022-10-23T15:28:08.318Z,16.56
2022-10-23T15:30:43.604Z,16.55
2022-10-23T15:33:19.215Z,16.38
2022-10-23T15:35:53.068Z,16.29
2022-10-23T15:38:26.320Z,16.22
2022-10-23T15:41:12.659Z,16.15
2022-10-23T15:43:45.129Z,16.10
2022-10-23T15:46:17.145Z,16.04
2022-10-23T15:48:49.285Z,15.96
2022-10-23T15:51:22.018Z,15.92
2022-10-23T15:53:54.465Z,15.95
2022-10-23T15:56:26.816Z,15.92
2022-10-23T15:58:58.920Z,15.87
2022-10-23T16:01:30.994Z,15.84
2022-10-23T16:04:03.202Z,15.81
2022-10-23T16:06:35.327Z,15.76
2022-10-23T16:09:07.997Z,15.76
2022-10-23T16:11:42.369Z,15.71
2022-10-23T16:14:17.931Z,15.68
2022-10-23T16:16:49.908Z,15.64
2022-10-23T16:19:21.929Z,15.60
2022-10-23T16:21:54.121Z,15.57
2022-10-23T16:24:26.312Z,15.54
2022-10-23T16:26:58.958Z,15.48
2022-10-23T16:29:31.072Z,15.53
2022-10-23T16:32:03.215Z,15.48
2022-10-23T16:34:35.381Z,15.49
2022-10-23T16:37:07.743Z,15.46
2022-10-23T16:39:58.663Z,15.35
2022-10-23T16:42:49.819Z,15.30
2022-10-23T16:45:36.999Z,15.28
2022-10-23T16:48:10.070Z,15.26
2022-10-23T16:50:43.129Z,15.21
2022-10-23T16:53:15.246Z,15.13
2022-10-23T16:55:49.221Z,15.15
2022-10-23T16:58:21.252Z,15.15
2022-10-23T17:01:01.897Z,15.05
2022-10-23T17:03:37.076Z,15.04
2022-10-23T17:06:11.346Z,14.98
2022-10-23T17:08:43.564Z,15.03
2022-10-23T17:11:18.189Z,15.05
2022-10-23T17:13:55.731Z,15.04
2022-10-23T17:16:34.625Z,14.97
2022-10-23T17:19:20.922Z,14.97
2022-10-23T17:22:01.617Z,14.99
2022-10-23T17:24:33.619Z,14.97
2022-10-23T17:27:05.770Z,14.97
2022-10-23T17:29:38.055Z,14.97
2022-10-23T17:32:10.391Z,14.98
2022-10-23T17:34:42.220Z,14.96
2022-10-23T17:37:14.499Z,14.90
2022-10-23T17:39:46.410Z,14.86
2022-10-23T17:42:17.972Z,14.84
2022-10-23T17:44:49.920Z,14.85
2022-10-23T17:47:21.521Z,14.78
2022-10-23T17:49:53.577Z,14.74
2022-10-23T17:52:25.301Z,14.73
2022-10-23T17:54:57.018Z,14.71
2022-10-23T17:57:28.951Z,14.65
2022-10-23T18:00:00.755Z,14.67
2022-10-23T18:02:32.895Z,14.66
2022-10-23T18:05:05.073Z,14.66
2022-10-23T18:07:37.193Z,14.64
2022-10-23T18:10:11.331Z,14.64
2022-10-23T18:12:51.023Z,14.65
2022-10-23T18:15:23.028Z,14.64
2022-10-23T18:17:54.821Z,14.64
2022-10-23T18:20:29.235Z,14.68
2022-10-23T18:23:03.174Z,14.64
2022-10-23T18:25:36.438Z,14.62
2022-10-23T18:28:08.826Z,14.63
2022-10-23T18:30:41.266Z,14.63
2022-10-23T18:33:13.422Z,14.64
2022-10-23T18:35:46.430Z,14.64
2022-10-23T18:38:18.965Z,14.65
2022-10-23T18:40:56.412Z,14.61
2022-10-23T18:43:42.563Z,14.59
2022-10-23T18:46:16.509Z,14.62
2022-10-23T18:48:51.441Z,14.62
2022-10-23T18:51:27.173Z,14.59
2022-10-23T18:54:01.436Z,14.62
2022-10-23T18:56:36.369Z,14.56
2022-10-23T18:59:12.499Z,14.52
2022-10-23T19:01:45.536Z,14.56
2022-10-23T19:04:18.324Z,14.56
2022-10-23T19:06:51.369Z,14.51
2022-10-23T19:09:24.194Z,14.49
2022-10-23T19:11:58.605Z,14.49
2022-10-23T19:14:31.229Z,14.49
2022-10-23T19:17:07.952Z,14.49
2022-10-23T19:19:46.163Z,14.50
2022-10-23T19:22:20.259Z,14.49
2022-10-23T19:24:57.211Z,14.49
2022-10-23T19:27:30.919Z,14.47
2022-10-23T19:30:06.392Z,14.53
2022-10-23T19:32:39.160Z,14.52
2022-10-23T19:35:16.436Z,14.59
2022-10-23T19:37:49.996Z,14.54
2022-10-23T19:40:24.437Z,14.54
2022-10-23T19:42:57.535Z,14.57
2022-10-23T19:48:02.508Z,14.54
2022-10-23T19:50:34.881Z,14.57
2022-10-23T19:53:08.257Z,14.57
2022-10-23T19:55:41.645Z,14.54
2022-10-23T19:58:14.234Z,14.49
2022-10-23T20:00:46.458Z,14.49
2022-10-23T20:03:20.786Z,14.44
2022-10-23T20:05:55.845Z,14.46
2022-10-23T20:08:34.948Z,14.49
2022-10-23T20:11:09.545Z,14.54
2022-10-23T20:13:44.709Z,14.55
2022-10-23T20:16:22.737Z,14.56
2022-10-23T20:18:55.032Z,14.46
2022-10-23T20:21:27.571Z,14.48
2022-10-23T20:24:01.427Z,14.46
2022-10-23T20:26:34.409Z,14.39
2022-10-23T20:29:04.923Z,14.41
2022-10-23T20:31:39.473Z,14.36
2022-10-23T20:34:13.088Z,14.38
2022-10-23T20:36:47.320Z,14.43
2022-10-23T20:39:22.164Z,14.35
2022-10-23T20:41:56.036Z,14.33
2022-10-23T20:44:28.990Z,14.33
2022-10-23T20:46:59.952Z,14.29
2022-10-23T20:49:32.399Z,14.25
2022-10-23T20:52:04.362Z,14.21
2022-10-23T20:54:38.645Z,14.26
2022-10-23T20:57:11.014Z,14.29
2022-10-23T20:59:43.578Z,14.32
2022-10-23T21:02:15.836Z,14.30
2022-10-23T21:04:50.428Z,14.31
2022-10-23T21:07:22.207Z,14.37
2022-10-23T21:09:53.844Z,14.30
2022-10-23T21:12:25.699Z,14.29
2022-10-23T21:14:57.550Z,14.25
2022-10-23T21:20:04.584Z,14.26
2022-10-23T21:22:36.379Z,14.28
2022-10-23T21:25:10.306Z,14.19
2022-10-23T21:27:42.294Z,14.15
2022-10-23T21:30:15.030Z,14.06
2022-10-23T21:32:46.655Z,14.06
2022-10-23T21:35:18.470Z,14.00
2022-10-23T21:37:50.266Z,13.96
2022-10-23T21:40:22.131Z,13.91
2022-10-23T21:42:54.185Z,13.87
2022-10-23T21:45:26.026Z,13.87
2022-10-23T21:47:57.951Z,13.87
2022-10-23T21:50:29.742Z,13.86
2022-10-23T21:53:01.900Z,13.90
2022-10-23T21:55:34.976Z,13.92
2022-10-23T21:58:06.775Z,13.91
2022-10-23T22:00:39.419Z,13.88
2022-10-23T22:03:11.407Z,13.82
2022-10-23T22:05:43.635Z,13.82
2022-10-23T22:08:17.046Z,13.86
2022-10-23T22:10:48.968Z,13.83
2022-10-23T22:13:20.750Z,13.83
2022-10-23T22:15:52.705Z,13.80
2022-10-23T22:18:24.445Z,13.74
2022-10-23T22:21:02.667Z,13.63
2022-10-23T22:23:34.850Z,13.68
2022-10-23T22:26:10.804Z,13.56
2022-10-23T22:28:43.559Z,13.62
2022-10-23T22:31:18.541Z,13.67
2022-10-23T22:33:50.371Z,13.68
2022-10-23T22:36:23.080Z,13.60
2022-10-23T22:38:55.938Z,13.60
2022-10-23T22:41:27.889Z,13.64
2022-10-23T22:44:00.824Z,13.65
2022-10-23T22:46:32.959Z,13.57
2022-10-23T22:51:40.236Z,13.52
2022-10-23T22:54:12.884Z,13.46
2022-10-23T22:56:44.655Z,13.43
2022-10-23T22:59:16.409Z,13.44
2022-10-23T23:01:49.915Z,13.51
2022-10-23T23:04:38.871Z,13.58
2022-10-23T23:07:13.579Z,13.52
2022-10-23T23:09:48.805Z,13.45
2022-10-23T23:12:20.799Z,13.50
2022-10-23T23:14:52.912Z,13.56
2022-10-23T23:17:24.986Z,13.59
2022-10-23T23:19:56.908Z,13.52
2022-10-23T23:22:28.757Z,13.53
2022-10-23T23:25:00.972Z,13.55
2022-10-23T23:27:33.065Z,13.47
2022-10-23T23:30:07.632Z,13.46
2022-10-23T23:32:39.897Z,13.44
2022-10-23T23:35:12.554Z,13.41
2022-10-23T23:37:44.597Z,13.34
2022-10-23T23:40:17.206Z,13.29
2022-10-23T23:42:48.967Z,13.27
2022-10-23T23:45:20.818Z,13.26
2022-10-23T23:47:52.630Z,13.32
2022-10-23T23:50:24.441Z,13.32
2022-10-23T23:52:56.401Z,13.31
2022-10-23T23:55:28.360Z,13.36
2022-10-23T23:58:00.195Z,13.38
